Time;durP1;ratioP1;P1;durP2;ratioP2;P2;SDS_P1;SDS_P2;PMS_P1;PMS_P2;Temp;Humidity;BMP_temperature;BMP_pressure;BME280_temperature;BME280_humidity;BME280_pressure;Samples;Min_cycle;Max_cycle;Signal;HPM_P1;HPM_P2
2022/10/14 00:01:18;;;;;;;10.17;5.20;;;;;;;6.39;86.30;96104.92;1782647;79;20974;-62
2022/10/14 00:03:48;;;;;;;7.73;5.77;;;;;;;6.40;86.15;96102.73;1755177;80;21057;-62
2022/10/14 00:06:21;;;;;;;10.50;5.50;;;;;;;6.37;85.58;96111.89;1797771;79;21049;-61
2022/10/14 00:08:49;;;;;;;13.13;5.50;;;;;;;6.28;85.50;96104.87;1774651;79;20981;-61
2022/10/14 00:11:20;;;;;;;11.10;6.27;;;;;;;6.21;85.62;96110.93;1712184;83;21125;-62
2022/10/14 00:13:47;;;;;;;9.70;5.17;;;;;;;6.20;86.04;96107.84;1719780;83;21069;-62
2022/10/14 00:16:18;;;;;;;9.43;6.30;;;;;;;6.19;85.60;96098.25;1730798;83;21030;-62
2022/10/14 00:18:46;;;;;;;13.70;6.33;;;;;;;6.15;86.04;96101.30;1758681;81;21504;-62
2022/10/14 00:21:14;;;;;;;10.00;5.80;;;;;;;6.11;86.17;96098.64;1717632;82;21122;-62
2022/10/14 00:23:41;;;;;;;10.07;6.50;;;;;;;6.08;86.29;96101.24;1747243;81;21078;-62
2022/10/14 00:26:18;;;;;;;9.60;5.87;;;;;;;6.03;86.19;96102.52;1698366;82;21082;-62
2022/10/14 00:28:46;;;;;;;10.00;4.90;;;;;;;6.01;86.38;96099.00;1759482;81;21089;-62
2022/10/14 00:31:13;;;;;;;7.53;5.03;;;;;;;5.92;86.92;96099.79;1713696;82;22238;-62
2022/10/14 00:33:41;;;;;;;10.00;4.97;;;;;;;5.86;86.07;96094.05;1699813;82;21023;-62
2022/10/14 00:36:15;;;;;;;8.00;5.33;;;;;;;5.81;86.17;96094.45;1753078;81;21540;-62
2022/10/14 00:38:44;;;;;;;9.28;6.05;;;;;;;5.78;86.15;96092.25;1726093;82;21001;-62
2022/10/14 00:41:16;;;;;;;10.17;5.80;;;;;;;5.75;86.22;96090.92;1717156;82;21030;-62
2022/10/14 00:43:58;;;;;;;18.03;6.93;;;;;;;5.75;86.17;96088.30;1787771;80;21045;-62
2022/10/14 00:46:35;;;;;;;12.50;5.23;;;;;;;5.76;86.41;96092.22;1773416;80;22252;-62
2022/10/14 00:49:16;;;;;;;9.33;5.10;;;;;;;5.71;86.22;96083.90;1793529;79;21571;-62
2022/10/14 00:51:48;;;;;;;14.03;5.43;;;;;;;5.56;85.96;96080.28;1791708;79;21057;-62
2022/10/14 00:54:19;;;;;;;11.50;5.27;;;;;;;5.47;85.94;96076.29;1759336;80;21094;-62
2022/10/14 00:56:47;;;;;;;8.37;4.80;;;;;;;5.51;86.30;96076.74;1794763;79;21018;-62
2022/10/14 00:59:15;;;;;;;13.07;5.87;;;;;;;5.57;86.30;96071.58;1791515;80;21124;-62
2022/10/14 01:01:43;;;;;;;10.53;4.93;;;;;;;5.54;86.59;96075.45;1798801;80;21014;-62
2022/10/14 01:04:10;;;;;;;12.13;5.30;;;;;;;5.54;87.03;96072.84;1782712;79;20986;-62
2022/10/14 01:07:01;;;;;;;6.83;4.80;;;;;;;5.51;87.17;96068.89;1798584;80;21022;-62
2022/10/14 01:09:39;;;;;;;7.97;4.47;;;;;;;5.48;86.77;96066.70;1768680;80;20998;-62
2022/10/14 01:12:20;;;;;;;11.87;4.47;;;;;;;5.53;87.06;96075.02;1796892;80;21041;-62
2022/10/14 01:14:52;;;;;;;9.40;4.50;;;;;;;5.58;87.21;96074.63;1763439;80;21032;-62
2022/10/14 01:17:27;;;;;;;7.47;4.67;;;;;;;5.52;87.03;96070.66;1787912;79;21093;-61
2022/10/14 01:20:38;;;;;;;17.20;5.13;;;;;;;5.48;86.83;96065.38;1781977;80;21105;-62
2022/10/14 01:23:28;;;;;;;8.40;4.87;;;;;;;5.45;87.26;96063.62;1798995;80;21044;-62
2022/10/14 01:26:33;;;;;;;10.77;5.17;;;;;;;5.46;87.62;96067.98;1790539;80;21081;-62
2022/10/14 01:29:26;;;;;;;8.87;5.07;;;;;;;5.40;87.53;96060.08;1780387;79;21519;-62
2022/10/14 01:32:05;;;;;;;6.50;4.75;;;;;;;5.50;87.97;96065.84;1792501;80;21106;-62
2022/10/14 01:34:43;;;;;;;7.97;4.73;;;;;;;5.43;86.79;96062.28;1796619;80;21086;-62
2022/10/14 01:37:14;;;;;;;6.30;4.40;;;;;;;5.33;87.44;96063.06;1770640;79;21073;-62
2022/10/14 01:39:46;;;;;;;7.50;4.10;;;;;;;5.34;87.70;96053.47;1776001;79;21025;-62
2022/10/14 01:42:18;;;;;;;7.30;4.33;;;;;;;5.38;87.53;96053.52;1780789;79;21010;-62
2022/10/14 01:44:50;;;;;;;16.40;4.37;;;;;;;5.41;87.49;96050.92;1790355;79;21045;-62
2022/10/14 01:47:20;;;;;;;11.53;4.60;;;;;;;5.45;87.52;96049.23;1779303;79;21160;-62
2022/10/14 01:49:55;;;;;;;6.87;4.40;;;;;;;5.43;87.20;96045.27;1792104;79;21022;-62
2022/10/14 01:52:30;;;;;;;7.40;4.50;;;;;;;5.49;87.36;96050.98;1774677;79;20991;-62
2022/10/14 01:55:01;;;;;;;6.60;4.20;;;;;;;5.54;87.01;96045.79;1795262;80;21021;-62
2022/10/14 01:57:32;;;;;;;9.47;4.53;;;;;;;5.55;86.70;96044.51;1775428;80;21013;-62
2022/10/14 02:00:00;;;;;;;9.53;5.10;;;;;;;5.47;86.14;96046.19;1777050;79;21017;-62
2022/10/14 02:02:27;;;;;;;6.90;4.53;;;;;;;5.48;86.81;96042.70;1782639;79;20994;-62
2022/10/14 02:04:54;;;;;;;8.23;4.10;;;;;;;5.56;87.28;96038.84;1770048;80;21117;-62
2022/10/14 02:07:44;;;;;;;7.87;4.57;;;;;;;5.62;86.76;96037.16;1798456;80;21112;-62
2022/10/14 02:10:52;;;;;;;7.90;4.70;;;;;;;5.59;86.39;96038.45;1792385;79;21511;-62
2022/10/14 02:13:44;;;;;;;11.63;4.80;;;;;;;5.55;86.44;96030.11;1793983;79;21014;-62
2022/10/14 02:16:33;;;;;;;6.23;4.37;;;;;;;5.56;86.14;96029.23;1775927;79;21576;-62
2022/10/14 02:19:28;;;;;;;10.13;4.57;;;;;;;5.55;86.50;96026.19;1791141;79;21054;-62
2022/10/14 02:22:03;;;;;;;8.07;3.93;;;;;;;5.60;86.73;96020.99;1798081;80;21119;-62
2022/10/14 02:24:37;;;;;;;11.03;4.63;;;;;;;5.54;85.80;96029.65;1780060;79;21029;-62
2022/10/14 02:27:12;;;;;;;8.00;4.40;;;;;;;5.56;86.48;96029.67;1686553;83;21113;-62
2022/10/14 02:29:42;;;;;;;10.43;4.17;;;;;;;5.59;86.23;96034.52;1727652;83;21097;-62
2022/10/14 02:32:13;;;;;;;9.83;4.80;;;;;;;5.49;85.41;96035.72;1746128;81;21069;-62
2022/10/14 02:34:46;;;;;;;11.40;4.10;;;;;;;5.43;86.01;96027.39;1733353;81;21101;-62
2022/10/14 02:37:16;;;;;;;11.03;4.80;;;;;;;5.42;85.64;96034.38;1752608;81;21065;-62
2022/10/14 02:39:53;;;;;;;9.00;4.60;;;;;;;5.38;86.25;96027.78;1689764;83;21041;-62
2022/10/14 02:42:20;;;;;;;10.03;5.50;;;;;;;5.43;86.08;96028.27;1797712;80;21026;-62
2022/10/14 02:44:57;;;;;;;8.07;4.67;;;;;;;5.30;85.31;96029.03;1781899;80;21013;-62
2022/10/14 02:47:25;;;;;;;10.60;5.70;;;;;;;5.18;86.04;96029.78;1766707;79;21503;-62
2022/10/14 02:49:53;;;;;;;8.33;5.97;;;;;;;5.09;86.84;96028.81;1766466;79;21013;-62
2022/10/14 02:52:20;;;;;;;8.70;5.73;;;;;;;5.01;86.81;96030.05;1784764;80;21049;-62
2022/10/14 02:54:47;;;;;;;8.17;5.07;;;;;;;4.97;86.77;96025.23;1767910;79;21001;-62
2022/10/14 02:57:13;;;;;;;12.03;4.87;;;;;;;4.93;86.45;96031.72;1780367;80;21090;-62
2022/10/14 02:59:40;;;;;;;12.83;5.17;;;;;;;4.94;86.84;96036.98;1789163;80;21060;-62
2022/10/14 03:02:07;;;;;;;13.60;5.53;;;;;;;4.92;86.39;96036.08;1775690;79;21025;-62
2022/10/14 03:04:35;;;;;;;9.70;4.97;;;;;;;4.93;86.58;96036.95;1791606;79;21064;-62
2022/10/14 03:07:02;;;;;;;10.67;5.03;;;;;;;4.93;86.55;96034.34;1786395;79;21006;-62
2022/10/14 03:09:29;;;;;;;6.70;4.67;;;;;;;4.92;86.49;96035.21;1780038;79;21069;-62
2022/10/14 03:11:56;;;;;;;8.93;4.90;;;;;;;4.81;86.68;96035.51;1778717;79;21013;-62
2022/10/14 03:14:23;;;;;;;7.80;4.80;;;;;;;4.75;87.56;96032.41;1788415;80;20993;-62
2022/10/14 03:16:50;;;;;;;7.20;4.83;;;;;;;4.68;88.13;96028.84;1797800;79;21030;-62
2022/10/14 03:19:19;;;;;;;7.80;4.57;;;;;;;4.61;87.99;96023.52;1798423;80;21026;-62
2022/10/14 03:21:48;;;;;;;11.67;6.33;;;;;;;4.56;88.17;96024.77;1777844;80;21037;-62
2022/10/14 03:24:17;;;;;;;10.40;6.30;;;;;;;4.51;88.02;96026.05;1791766;79;21088;-63
2022/10/14 03:26:44;;;;;;;9.57;5.63;;;;;;;4.54;88.09;96025.21;1786093;80;21145;-62
2022/10/14 03:29:11;;;;;;;8.83;6.17;;;;;;;4.60;88.03;96025.70;1715991;83;21161;-62
2022/10/14 03:31:52;;;;;;;10.60;5.10;;;;;;;4.63;88.67;96034.45;1724822;83;21059;-62
2022/10/14 03:34:23;;;;;;;10.27;5.10;;;;;;;4.64;88.26;96023.15;1715151;82;21066;-62
2022/10/14 03:36:51;;;;;;;8.37;4.60;;;;;;;4.65;87.98;96018.80;1788266;80;21017;-62
2022/10/14 03:39:19;;;;;;;9.10;6.23;;;;;;;4.71;88.00;96017.13;1794802;80;21034;-62
2022/10/14 03:41:48;;;;;;;9.27;5.23;;;;;;;4.74;87.90;96022.39;1795319;80;21041;-62
2022/10/14 03:44:16;;;;;;;11.70;5.13;;;;;;;4.81;88.18;96022.44;1799740;80;21077;-62
2022/10/14 03:46:45;;;;;;;7.70;4.30;;;;;;;4.84;87.59;96022.46;1794343;80;20998;-62
2022/10/14 03:49:12;;;;;;;5.57;4.10;;;;;;;4.90;87.94;96019.93;1752570;80;21088;-62
2022/10/14 03:51:39;;;;;;;5.90;4.60;;;;;;;4.91;87.27;96021.27;1799475;80;20986;-62
2022/10/14 03:54:08;;;;;;;9.90;4.27;;;;;;;4.82;86.46;96022.91;1792712;79;21022;-62
2022/10/14 03:56:35;;;;;;;12.80;4.80;;;;;;;4.73;86.65;96027.15;1798615;80;21017;-62
2022/10/14 03:59:03;;;;;;;11.80;4.43;;;;;;;4.73;86.71;96021.05;1751839;80;21025;-62
2022/10/14 04:01:31;;;;;;;11.40;4.67;;;;;;;4.79;87.53;96025.06;1791087;79;21060;-62
2022/10/14 04:04:02;;;;;;;6.67;4.50;;;;;;;4.89;87.46;96020.77;1790150;79;21021;-62
2022/10/14 04:06:30;;;;;;;14.10;4.90;;;;;;;4.95;87.22;96013.88;1788609;80;21527;-62
2022/10/14 04:08:57;;;;;;;9.67;4.23;;;;;;;4.92;86.46;96007.32;1790649;79;21004;-62
2022/10/14 04:11:25;;;;;;;8.30;4.10;;;;;;;4.89;86.26;96010.31;1775578;79;21013;-62
2022/10/14 04:13:59;;;;;;;10.27;5.00;;;;;;;4.83;86.54;96013.75;1745345;80;21098;-62
2022/10/14 04:16:27;;;;;;;7.15;4.20;;;;;;;4.83;86.87;96008.96;1753480;80;21060;-62
2022/10/14 04:18:58;;;;;;;9.43;4.30;;;;;;;4.82;86.29;96010.70;1782031;80;21061;-62
2022/10/14 04:21:25;;;;;;;7.70;4.50;;;;;;;4.76;86.22;96013.23;1725692;83;21050;-62
2022/10/14 04:23:52;;;;;;;6.47;4.53;;;;;;;4.82;86.65;96012.45;1713230;82;21522;-62
2022/10/14 04:26:21;;;;;;;10.20;4.87;;;;;;;4.76;86.42;96015.45;1799075;80;21094;-62
2022/10/14 04:28:47;;;;;;;7.70;5.03;;;;;;;4.73;86.36;96007.98;1797912;79;21034;-62
2022/10/14 04:31:16;;;;;;;9.40;5.13;;;;;;;4.81;87.05;96008.93;1794825;80;21555;-62
2022/10/14 04:33:48;;;;;;;8.63;5.37;;;;;;;4.88;86.92;96003.34;1772032;80;21072;-62
2022/10/14 04:36:17;;;;;;;7.60;4.43;;;;;;;4.87;86.47;96002.91;1698544;83;21124;-62
2022/10/14 04:38:44;;;;;;;9.90;5.30;;;;;;;4.70;85.59;96007.52;1731494;83;21511;-62
2022/10/14 04:41:11;;;;;;;12.87;7.13;;;;;;;4.59;86.25;96006.98;1797119;80;20979;-62
2022/10/14 04:43:39;;;;;;;16.67;11.27;;;;;;;4.55;86.88;96006.05;1784889;80;21578;-62
2022/10/14 04:46:08;;;;;;;16.23;11.13;;;;;;;4.54;86.62;96006.48;1738563;82;21105;-62
2022/10/14 04:48:35;;;;;;;12.00;8.77;;;;;;;4.51;86.71;96005.16;1738200;82;21028;-62
2022/10/14 04:51:03;;;;;;;11.30;5.03;;;;;;;4.53;86.94;96007.76;1707516;83;21556;-62
2022/10/14 04:53:35;;;;;;;9.97;5.77;;;;;;;4.44;86.49;96005.94;1714772;83;21076;-62
2022/10/14 04:56:12;;;;;;;7.50;5.13;;;;;;;4.31;86.77;95998.38;1687177;82;21086;-62
2022/10/14 04:58:41;;;;;;;11.77;7.40;;;;;;;4.25;87.43;96002.64;1737171;81;21511;-62
2022/10/14 05:01:08;;;;;;;14.73;7.20;;;;;;;4.20;87.47;96005.19;1707965;83;21063;-62
2022/10/14 05:03:36;;;;;;;15.40;8.17;;;;;;;4.16;87.07;96003.42;1701329;82;21599;-67
2022/10/14 05:06:04;;;;;;;9.30;5.60;;;;;;;4.12;87.54;96007.70;1745460;81;21100;-66
2022/10/14 05:08:30;;;;;;;7.90;5.83;;;;;;;4.16;87.63;96003.42;1724913;82;21126;-67
2022/10/14 05:10:59;;;;;;;9.20;5.83;;;;;;;4.23;87.82;96001.30;1721966;81;21021;-67
2022/10/14 05:13:29;;;;;;;11.10;6.70;;;;;;;4.21;87.38;95997.83;1749669;81;21077;-66
2022/10/14 05:15:58;;;;;;;11.47;7.47;;;;;;;4.26;87.96;95994.84;1744045;81;21105;-70
2022/10/14 05:18:25;;;;;;;13.70;9.17;;;;;;;4.31;88.25;95992.28;1728178;82;21598;-69
2022/10/14 05:20:58;;;;;;;11.20;7.37;;;;;;;4.38;88.15;95999.75;1734892;81;21050;-70
2022/10/14 05:23:27;;;;;;;9.27;6.40;;;;;;;4.44;88.30;95995.48;1741262;81;21046;-66
2022/10/14 05:25:55;;;;;;;8.87;5.17;;;;;;;4.50;88.26;95993.36;1734197;82;21105;-68
2022/10/14 05:28:22;;;;;;;6.90;4.80;;;;;;;4.53;88.04;95997.30;1697847;82;21090;-74
2022/10/14 05:30:49;;;;;;;10.23;5.57;;;;;;;4.54;87.85;95998.64;1738021;82;21137;-69
2022/10/14 05:33:16;;;;;;;14.90;6.40;;;;;;;4.64;88.31;96000.94;1741709;81;21046;-68
2022/10/14 05:35:43;;;;;;;12.83;7.63;;;;;;;4.71;88.67;95996.22;1717589;83;21086;-66
2022/10/14 05:38:11;;;;;;;12.53;8.90;;;;;;;4.85;89.57;95995.48;1735176;82;21118;-66
2022/10/14 05:40:39;;;;;;;17.30;10.50;;;;;;;4.99;88.98;95999.11;1752430;81;21049;-67
2022/10/14 05:43:06;;;;;;;19.47;12.67;;;;;;;5.07;88.60;95990.90;1718382;83;21097;-69
2022/10/14 05:45:34;;;;;;;16.70;11.47;;;;;;;5.20;88.61;95998.42;1682163;82;21105;-70
2022/10/14 05:48:02;;;;;;;12.40;9.80;;;;;;;5.37;88.63;95999.87;1721759;82;21081;-69
2022/10/14 05:50:29;;;;;;;23.03;14.10;;;;;;;5.43;87.68;95992.06;1759583;81;21105;-72
2022/10/14 05:53:00;;;;;;;13.20;7.27;;;;;;;5.54;87.98;95994.75;1740962;82;21056;-69
2022/10/14 05:55:28;;;;;;;15.20;8.20;;;;;;;5.67;87.57;95995.71;1741208;82;21035;-69
2022/10/14 05:57:57;;;;;;;11.27;7.60;;;;;;;5.79;87.38;95989.25;1722742;81;21014;-67
2022/10/14 06:00:26;;;;;;;15.93;10.13;;;;;;;5.91;87.50;95989.77;1741678;81;21106;-68
2022/10/14 06:02:57;;;;;;;12.83;6.50;;;;;;;5.98;86.94;95988.98;1769182;81;21050;-68
2022/10/14 06:05:24;;;;;;;12.57;7.30;;;;;;;6.08;86.99;95990.77;1718293;82;21104;-66
2022/10/14 06:07:52;;;;;;;25.13;15.67;;;;;;;6.13;86.54;95994.30;1740211;81;21103;-68
2022/10/14 06:10:19;;;;;;;30.53;21.90;;;;;;;6.22;86.99;95985.59;1768561;81;21002;-76
2022/10/14 06:12:46;;;;;;;25.33;15.00;;;;;;;6.38;87.23;95987.42;1741319;81;21105;-69
2022/10/14 06:15:13;;;;;;;12.33;8.00;;;;;;;6.50;86.95;95985.25;1739920;81;21157;-67
2022/10/14 06:17:40;;;;;;;20.80;13.10;;;;;;;6.60;86.42;95987.48;1744029;81;21086;-74
2022/10/14 06:20:07;;;;;;;24.83;17.90;;;;;;;6.64;86.59;95989.25;1723010;82;21047;-71
2022/10/14 06:22:34;;;;;;;23.77;17.70;;;;;;;6.69;86.27;95991.00;1740674;82;21158;-67
2022/10/14 06:25:01;;;;;;;19.07;12.97;;;;;;;6.76;86.25;95985.80;1736784;82;21055;-70
2022/10/14 06:27:27;;;;;;;12.50;9.03;;;;;;;6.82;86.52;95990.59;1735360;82;21187;-77
2022/10/14 06:29:54;;;;;;;9.50;7.83;;;;;;;6.89;86.41;95992.81;1740874;82;21051;-71
2022/10/14 06:32:20;;;;;;;15.53;8.50;;;;;;;6.97;86.48;95992.83;1728046;82;21079;-75
2022/10/14 06:34:47;;;;;;;14.27;8.10;;;;;;;7.03;86.26;95994.13;1738254;81;21067;-78
2022/10/14 06:37:13;;;;;;;13.73;7.60;;;;;;;7.09;86.33;95995.47;1739579;81;21074;-75
2022/10/14 06:39:42;;;;;;;9.20;5.60;;;;;;;7.15;86.56;96000.27;1732096;82;21024;-79
2022/10/14 06:42:08;;;;;;;9.97;6.17;;;;;;;7.26;86.70;95989.80;1747083;81;21112;-75
2022/10/14 06:44:35;;;;;;;7.20;5.60;;;;;;;7.36;86.58;95990.69;1755838;81;21054;-75
2022/10/14 06:47:02;;;;;;;7.87;4.93;;;;;;;7.47;86.69;95986.74;1734276;81;21011;-72
2022/10/14 06:49:28;;;;;;;8.17;5.80;;;;;;;7.58;86.52;95987.19;1716919;83;21077;-69
2022/10/14 06:51:55;;;;;;;8.73;5.20;;;;;;;7.74;86.46;95985.41;1738022;81;21562;-68
2022/10/14 06:54:22;;;;;;;8.87;5.27;;;;;;;7.86;86.21;95990.19;1751664;81;21068;-69
2022/10/14 06:56:48;;;;;;;10.53;5.47;;;;;;;7.96;85.79;95994.14;1736904;81;21075;-68
2022/10/14 06:59:15;;;;;;;14.40;7.73;;;;;;;8.09;85.84;95994.08;1744945;81;21078;-71
2022/10/14 07:01:42;;;;;;;11.38;8.23;;;;;;;8.21;85.52;95989.69;1745968;81;21054;-74
2022/10/14 07:04:09;;;;;;;23.13;19.53;;;;;;;8.34;85.54;95991.84;1741509;81;20978;-73
2022/10/14 07:06:36;;;;;;;15.03;11.53;;;;;;;8.44;84.41;95994.91;1742604;81;21097;-74
2022/10/14 07:09:04;;;;;;;19.77;14.90;;;;;;;8.51;84.43;95993.10;1755791;81;21638;-67
2022/10/14 07:11:31;;;;;;;10.87;6.87;;;;;;;8.65;84.54;95997.88;1742990;81;21054;-70
2022/10/14 07:13:58;;;;;;;9.85;8.23;;;;;;;8.81;84.72;95992.53;1755058;81;21044;-72
2022/10/14 07:16:25;;;;;;;8.43;6.22;;;;;;;9.00;85.08;95988.92;1753664;81;21484;-75
2022/10/14 07:18:52;;;;;;;9.65;5.65;;;;;;;9.19;84.59;96003.27;1758236;81;21077;-74
2022/10/14 07:21:19;;;;;;;6.10;4.80;;;;;;;9.34;84.65;95995.26;1760425;81;21089;-78
2022/10/14 07:23:45;;;;;;;9.20;5.12;;;;;;;9.55;83.81;95991.61;1757185;81;21542;-72
2022/10/14 07:26:12;;;;;;;8.55;5.40;;;;;;;9.74;83.85;95991.86;1759717;81;21053;-72
2022/10/14 07:28:39;;;;;;;16.20;6.90;;;;;;;9.94;83.59;95990.35;1757143;81;21014;-73
2022/10/14 07:31:09;;;;;;;9.58;7.53;;;;;;;10.11;83.24;95993.28;1757082;81;21022;-72
2022/10/14 07:33:38;;;;;;;7.17;5.42;;;;;;;10.23;81.91;95989.20;1756205;81;21123;-78
2022/10/14 07:36:09;;;;;;;9.90;6.08;;;;;;;10.42;82.10;95996.47;1754198;81;21085;-77
2022/10/14 07:38:36;;;;;;;6.97;5.08;;;;;;;10.56;80.27;95993.23;1747290;81;21053;-72
2022/10/14 07:41:15;;;;;;;8.45;4.70;;;;;;;10.66;79.00;95990.47;1756345;81;21113;-74
2022/10/14 07:43:38;;;;;;;6.35;5.03;;;;;;;10.85;80.74;95991.12;1734065;81;21062;-69
2022/10/14 07:46:06;;;;;;;9.75;5.37;;;;;;;11.07;79.43;95988.61;1729142;81;21036;-68
2022/10/14 07:48:34;;;;;;;8.68;5.50;;;;;;;11.16;78.16;95987.59;1740579;81;20999;-65
2022/10/14 07:51:01;;;;;;;6.17;5.03;;;;;;;11.28;77.88;95981.27;1753777;81;21702;-67
2022/10/14 07:53:28;;;;;;;10.48;5.53;;;;;;;11.42;77.73;95986.77;1706332;82;21128;-68
2022/10/14 07:55:58;;;;;;;7.08;5.17;;;;;;;11.48;76.30;95985.78;1728799;81;21578;-65
2022/10/14 07:58:29;;;;;;;13.30;6.00;;;;;;;11.48;75.05;95991.94;1740385;81;21852;-72
2022/10/14 08:00:57;;;;;;;9.13;6.10;;;;;;;11.52;75.92;95987.50;1746132;81;21085;-74
2022/10/14 08:03:25;;;;;;;7.28;5.65;;;;;;;11.57;74.80;95986.97;1749133;81;21070;-72
2022/10/14 08:06:02;;;;;;;7.70;5.40;;;;;;;11.56;74.88;95981.70;1751040;81;21038;-70
2022/10/14 08:08:30;;;;;;;7.62;5.62;;;;;;;11.70;75.37;95981.89;1757503;81;21148;-76
2022/10/14 08:11:03;;;;;;;6.85;5.20;;;;;;;11.84;76.14;95980.78;1746725;81;21471;-69
2022/10/14 08:13:30;;;;;;;;;;;;;;;11.96;75.23;95975.77;1731723;81;21136;-74
2022/10/14 08:15:56;;;;;;;9.88;6.78;;;;;;;12.03;74.71;95980.92;1752919;81;20126;-66
2022/10/14 08:18:24;;;;;;;8.85;6.40;;;;;;;12.16;76.21;95976.28;1754151;81;21119;-66
2022/10/14 08:20:51;;;;;;;9.73;6.47;;;;;;;12.32;76.55;95984.36;1756449;81;21073;-68
2022/10/14 08:23:19;;;;;;;10.30;6.83;;;;;;;12.45;76.72;95982.80;1742104;81;21089;-67
2022/10/14 08:25:48;;;;;;;9.70;6.22;;;;;;;12.58;76.50;95979.45;1732052;81;21567;-72
2022/10/14 08:28:15;;;;;;;9.73;6.12;;;;;;;12.66;75.74;95973.09;1732971;81;21002;-65
2022/10/14 08:30:42;;;;;;;12.93;7.58;;;;;;;12.74;75.17;95978.22;1731972;81;21192;-64
2022/10/14 08:33:08;;;;;;;9.13;6.65;;;;;;;12.84;75.87;95981.09;1746267;81;21665;-70
2022/10/14 08:35:35;;;;;;;9.65;7.35;;;;;;;12.94;76.06;95980.45;1729283;81;21098;-75
2022/10/14 08:38:02;;;;;;;10.88;6.83;;;;;;;13.00;75.15;95980.30;1735662;81;21041;-70
2022/10/14 08:40:34;;;;;;;9.70;7.30;;;;;;;13.10;76.34;95979.65;1759621;81;21109;-70
2022/10/14 08:43:17;;;;;;;10.05;6.67;;;;;;;13.24;75.98;95981.55;1756511;81;21010;-68
2022/10/14 08:45:54;;;;;;;10.25;7.08;;;;;;;13.33;75.32;95976.08;1757105;81;21061;-77
2022/10/14 08:48:25;;;;;;;9.13;6.12;;;;;;;13.44;75.59;95974.49;1756201;81;21098;-77
2022/10/14 08:51:14;;;;;;;8.10;6.33;;;;;;;13.56;75.66;95979.97;1757212;81;21069;-66
2022/10/14 08:53:55;;;;;;;8.65;6.65;;;;;;;13.67;75.32;95981.89;1744637;81;21594;-67
2022/10/14 08:56:23;;;;;;;8.60;6.53;;;;;;;13.71;74.71;95984.00;1732735;81;21096;-68
2022/10/14 08:58:53;;;;;;;7.42;6.17;;;;;;;13.66;74.30;95982.81;1751112;81;21542;-65
2022/10/14 09:01:30;;;;;;;14.00;6.12;;;;;;;13.70;74.10;95984.45;1772761;80;21080;-67
2022/10/14 09:04:06;;;;;;;9.93;6.20;;;;;;;13.88;74.69;95981.80;1762540;80;21025;-66
2022/10/14 09:06:35;;;;;;;11.25;6.22;;;;;;;13.88;74.69;95981.80;1772081;80;21038;-65
2022/10/14 09:09:19;;;;;;;8.43;5.62;;;;;;;13.97;74.89;95983.36;1770191;80;21035;-66
2022/10/14 09:11:57;;;;;;;13.48;6.45;;;;;;;13.94;72.88;95971.05;1776968;80;21085;-66
2022/10/14 09:14:29;;;;;;;7.33;6.00;;;;;;;14.04;73.61;95976.53;1756830;81;21113;-72
2022/10/14 09:17:04;;;;;;;10.90;6.60;;;;;;;14.11;72.98;95978.58;1755754;81;21072;-75
2022/10/14 09:19:36;;;;;;;9.75;6.55;;;;;;;14.20;72.68;95972.14;1757453;81;21014;-64
2022/10/14 09:22:06;;;;;;;10.15;7.03;;;;;;;14.20;72.68;95972.14;1754921;81;21026;-65
2022/10/14 09:24:36;;;;;;;9.35;6.65;;;;;;;14.26;71.86;95974.19;1755625;81;21112;-65
2022/10/14 09:27:16;;;;;;;9.58;7.05;;;;;;;14.34;72.36;95978.39;1757487;81;21060;-65
2022/10/14 09:30:03;;;;;;;11.10;6.47;;;;;;;14.39;70.00;95983.12;1756318;81;21077;-65
2022/10/14 09:32:35;;;;;;;8.98;7.12;;;;;;;14.39;70.00;95983.12;1756911;81;21042;-65
2022/10/14 09:35:05;;;;;;;11.73;8.08;;;;;;;14.47;71.64;95981.15;1757724;81;21033;-65
2022/10/14 09:37:36;;;;;;;10.13;7.22;;;;;;;14.42;70.82;95978.61;1757095;81;21006;-65
2022/10/14 09:40:11;;;;;;;9.68;8.25;;;;;;;14.46;71.55;95984.70;1759668;81;21037;-66
2022/10/14 09:43:10;;;;;;;10.63;7.97;;;;;;;14.48;70.56;95985.07;1756774;81;21026;-66
2022/10/14 09:46:06;;;;;;;7.90;6.65;;;;;;;14.50;70.89;95984.58;1757282;81;21014;-66
2022/10/14 09:48:42;;;;;;;11.03;8.40;;;;;;;14.53;69.22;95982.33;1758559;81;21022;-66
2022/10/14 09:51:32;;;;;;;10.00;8.13;;;;;;;14.53;69.93;95980.09;1758622;81;20982;-66
2022/10/14 09:54:03;;;;;;;11.60;8.65;;;;;;;14.63;70.10;95982.48;1760005;81;21132;-65
2022/10/14 09:56:36;;;;;;;10.43;7.55;;;;;;;14.80;69.13;95980.68;1733426;81;21061;-66
2022/10/14 09:59:04;;;;;;;;;;;;;;;14.84;68.23;95981.02;1757062;81;21058;-66
2022/10/14 10:01:36;;;;;;;9.98;6.85;;;;;;;14.95;68.20;95974.52;1757745;81;20152;-66
2022/10/14 10:04:34;;;;;;;10.05;7.22;;;;;;;15.11;67.59;95973.12;1757406;81;21034;-66
2022/10/14 10:07:06;;;;;;;11.00;6.80;;;;;;;15.21;67.05;95967.94;1757234;81;21018;-65
2022/10/14 10:09:33;;;;;;;7.80;6.78;;;;;;;15.27;65.07;95969.52;1758831;81;21025;-66
2022/10/14 10:11:59;;;;;;;9.40;6.87;;;;;;;15.45;66.95;95964.98;1733307;81;21056;-65
2022/10/14 10:14:32;;;;;;;9.80;7.10;;;;;;;15.63;66.46;95963.98;1756032;81;21113;-65
2022/10/14 10:17:14;;;;;;;10.20;7.05;;;;;;;15.72;64.84;95952.62;1759043;81;21495;-66
2022/10/14 10:19:48;;;;;;;10.82;7.00;;;;;;;15.92;65.75;95956.38;1757925;81;21087;-66
2022/10/14 10:22:23;;;;;;;7.90;6.72;;;;;;;16.30;64.33;95955.05;1758878;81;21029;-66
2022/10/14 10:25:04;;;;;;;8.48;6.37;;;;;;;16.74;62.86;95956.59;1756328;81;21022;-66
2022/10/14 10:27:38;;;;;;;9.40;7.40;;;;;;;17.12;62.03;95953.44;1758168;81;21053;-66
2022/10/14 10:30:31;;;;;;;10.13;7.50;;;;;;;17.59;61.28;95951.56;1759294;81;21124;-66
2022/10/14 10:33:44;;;;;;;8.13;7.22;;;;;;;17.99;60.75;95939.25;1758613;81;21575;-67
2022/10/14 10:36:34;;;;;;;8.45;7.33;;;;;;;18.54;59.77;95931.98;1758402;81;21006;-66
2022/10/14 10:39:06;;;;;;;9.73;7.05;;;;;;;19.00;54.77;95932.14;1756226;81;21125;-66
2022/10/14 10:41:57;;;;;;;10.32;6.28;;;;;;;19.24;54.90;95933.26;1758820;81;21072;-66
2022/10/14 10:44:48;;;;;;;10.13;6.92;;;;;;;19.76;57.34;95926.77;1759614;81;21568;-67
2022/10/14 10:47:23;;;;;;;;;;;;;;;20.24;55.30;95926.56;1758492;81;21516;-66
2022/10/14 10:49:58;;;;;;;11.38;7.45;;;;;;;20.40;52.35;95918.59;1757587;81;20148;-66
2022/10/14 10:52:45;;;;;;;15.63;6.92;;;;;;;20.66;51.77;95916.37;1758953;81;21101;-67
2022/10/14 10:55:46;;;;;;;7.58;6.58;;;;;;;20.83;48.91;95920.84;1758455;81;21021;-66
2022/10/14 10:58:26;;;;;;;8.88;6.37;;;;;;;21.09;49.11;95906.00;1758551;81;21021;-66
2022/10/14 11:01:30;;;;;;;15.08;6.92;;;;;;;21.34;48.67;95907.73;1755748;81;21010;-66
2022/10/14 11:04:23;;;;;;;7.15;6.37;;;;;;;21.30;46.56;95903.96;1756097;81;21484;-66
2022/10/14 11:13:19;;;;;;;6.62;5.35;;;;;;;21.60;47.79;95900.05;1756206;81;20959;-67
2022/10/14 11:15:57;;;;;;;8.20;5.85;;;;;;;21.85;47.04;95893.23;1759573;81;21030;-67
2022/10/14 11:18:47;;;;;;;13.80;8.65;;;;;;;21.99;46.91;95891.47;1755966;81;21101;-66
2022/10/14 11:21:37;;;;;;;8.13;5.92;;;;;;;22.13;46.13;95888.46;1760256;81;21026;-67
2022/10/14 11:24:43;;;;;;;6.47;5.87;;;;;;;22.14;46.74;95876.74;1755575;81;21523;-67
2022/10/14 11:27:36;;;;;;;7.12;5.67;;;;;;;22.10;47.20;95883.25;1755456;81;21208;-66
2022/10/14 11:30:17;;;;;;;;;;;;;;;22.14;47.08;95879.43;1754685;81;21053;-66
2022/10/14 11:33:09;;;;;;;7.30;5.78;;;;;;;22.36;47.05;95875.87;1758968;81;20104;-66
2022/10/14 11:36:18;;;;;;;14.55;5.50;;;;;;;22.62;46.30;95871.56;1740985;81;21041;-66
2022/10/14 11:39:22;;;;;;;9.58;5.97;;;;;;;22.89;46.15;95866.30;1757989;81;21030;-67
2022/10/14 11:42:13;;;;;;;6.12;5.42;;;;;;;23.06;44.42;95860.38;1758720;81;21058;-66
2022/10/14 11:44:40;;;;;;;8.95;5.65;;;;;;;23.35;45.17;95865.70;1758843;81;21042;-66
2022/10/14 11:47:21;;;;;;;9.70;5.45;;;;;;;23.54;43.25;95860.36;1758800;81;21014;-67
2022/10/14 11:50:10;;;;;;;10.25;5.60;;;;;;;23.81;44.22;95858.65;1757920;81;21026;-67
2022/10/14 11:52:45;;;;;;;6.12;5.28;;;;;;;23.91;42.46;95857.95;1760186;81;21002;-67
2022/10/14 11:55:22;;;;;;;8.55;6.03;;;;;;;24.17;42.05;95850.78;1758973;81;21017;-66
2022/10/14 11:57:59;;;;;;;7.87;5.60;;;;;;;24.38;42.61;95855.16;1753421;81;21025;-67
2022/10/14 12:01:12;;;;;;;7.75;5.90;;;;;;;24.54;42.47;95850.08;1757453;81;21033;-67
2022/10/14 12:03:59;;;;;;;6.35;5.75;;;;;;;24.69;41.48;95847.65;1758416;81;21010;-66
2022/10/14 12:06:37;;;;;;;5.92;5.42;;;;;;;25.02;41.22;95844.41;1759237;81;21089;-67
2022/10/14 12:09:24;;;;;;;7.08;5.90;;;;;;;25.26;39.97;95847.17;1757430;81;21038;-66
2022/10/14 12:11:59;;;;;;;7.87;5.50;;;;;;;25.12;40.16;95835.12;1753772;81;21113;-66